createdAt,value
2023-03-27T00:00:39.191Z,82.51
2023-03-27T00:03:47.732Z,82.24
2023-03-27T00:06:55.339Z,83.28
2023-03-27T00:10:02.942Z,83.28
2023-03-27T00:13:11.424Z,81.20
2023-03-27T00:16:19.171Z,83.17
2023-03-27T00:19:26.710Z,81.82
2023-03-27T00:22:35.859Z,80.79
2023-03-27T00:25:43.324Z,79.55
2023-03-27T00:28:50.698Z,79.58
2023-03-27T00:31:59.628Z,78.23
2023-03-27T00:35:06.932Z,76.78
2023-03-27T00:38:14.182Z,77.82
2023-03-27T00:41:21.835Z,76.92
2023-03-27T00:44:30.191Z,76.71
2023-03-27T00:47:37.528Z,77.12
2023-03-27T00:50:45.219Z,76.40
2023-03-27T00:53:53.730Z,76.29
2023-03-27T00:57:01.528Z,76.09
2023-03-27T01:00:09.552Z,77.64
2023-03-27T01:03:18.059Z,75.88
2023-03-27T01:06:25.701Z,76.19
2023-03-27T01:09:33.335Z,76.54
2023-03-27T01:12:42.030Z,76.33
2023-03-27T01:15:49.481Z,76.47
2023-03-27T01:18:56.730Z,77.03
2023-03-27T01:22:04.375Z,78.79
2023-03-27T01:25:13.114Z,79.24
2023-03-27T01:28:20.318Z,79.55
2023-03-27T01:31:28.052Z,78.86
2023-03-27T01:34:36.482Z,79.59
2023-03-27T01:37:43.929Z,79.17
2023-03-27T01:40:51.612Z,80.36
2023-03-27T01:44:00.052Z,79.32
2023-03-27T01:47:07.710Z,80.05
2023-03-27T01:50:15.375Z,79.46
2023-03-27T01:53:24.111Z,80.81
2023-03-27T01:56:31.391Z,80.40
2023-03-27T01:59:38.979Z,80.33
2023-03-27T02:02:46.546Z,79.80
2023-03-27T02:05:55.195Z,81.26
2023-03-27T02:09:02.559Z,81.99
2023-03-27T02:12:10.375Z,82.34
2023-03-27T02:15:24.510Z,81.72
2023-03-27T02:18:22.980Z,82.55
2023-03-27T02:21:30.658Z,80.78
2023-03-27T02:24:39.376Z,81.09
2023-03-27T02:27:46.624Z,81.30
2023-03-27T02:31:06.574Z,81.30
2023-03-27T02:33:59.679Z,81.96
2023-03-27T02:37:07.422Z,82.80
2023-03-27T02:40:14.844Z,82.70
2023-03-27T02:43:23.565Z,81.96
2023-03-27T02:46:31.058Z,81.86
2023-03-27T02:49:38.512Z,82.07
2023-03-27T02:52:45.693Z,83.01
2023-03-27T02:55:54.509Z,83.04
2023-03-27T02:59:02.105Z,83.25
2023-03-27T03:02:09.420Z,83.57
2023-03-27T03:05:18.044Z,83.36
2023-03-27T03:08:25.696Z,82.84
2023-03-27T03:11:33.017Z,83.36
2023-03-27T03:14:41.877Z,84.40
2023-03-27T03:17:49.359Z,84.30
2023-03-27T03:20:56.957Z,83.67
2023-03-27T03:24:05.751Z,83.57
2023-03-27T03:27:12.871Z,84.75
2023-03-27T03:30:20.504Z,84.34
2023-03-27T03:33:28.105Z,85.34
2023-03-27T03:36:36.596Z,85.03
2023-03-27T03:39:44.334Z,85.76
2023-03-27T03:42:52.010Z,85.24
2023-03-27T03:46:00.420Z,86.18
2023-03-27T03:49:07.669Z,86.13
2023-03-27T03:52:15.036Z,85.30
2023-03-27T03:55:23.642Z,84.47
2023-03-27T03:58:34.525Z,84.36
2023-03-27T04:01:31.786Z,84.19
2023-03-27T04:04:40.692Z,83.78
2023-03-27T04:07:48.321Z,84.30
2023-03-27T04:10:56.042Z,84.72
2023-03-27T04:14:03.344Z,84.75
2023-03-27T04:17:12.219Z,84.65
2023-03-27T04:20:20.250Z,84.65
2023-03-27T04:23:27.557Z,84.23
2023-03-27T04:26:36.418Z,84.86
2023-03-27T04:29:44.362Z,84.75
2023-03-27T04:32:51.798Z,84.23
2023-03-27T04:36:06.360Z,84.44
2023-03-27T04:39:03.566Z,84.75
2023-03-27T04:42:10.689Z,84.96
2023-03-27T04:45:20.052Z,84.96
2023-03-27T04:48:27.882Z,85.06
2023-03-27T04:51:34.936Z,85.03
2023-03-27T04:54:42.657Z,85.34
2023-03-27T04:57:51.640Z,85.03
2023-03-27T05:00:58.812Z,85.13
2023-03-27T05:04:06.802Z,85.13
2023-03-27T05:07:15.943Z,84.88
2023-03-27T05:10:23.377Z,85.20
2023-03-27T05:13:30.551Z,85.30
2023-03-27T05:16:39.375Z,85.82
2023-03-27T05:19:46.358Z,85.82
2023-03-27T05:22:53.743Z,86.24
2023-03-27T05:26:02.537Z,86.13
2023-03-27T05:29:10.072Z,86.28
2023-03-27T05:32:16.960Z,86.18
2023-03-27T05:35:24.890Z,86.49
2023-03-27T05:38:34.067Z,86.91
2023-03-27T05:41:40.976Z,87.12
2023-03-27T05:44:48.966Z,87.32
2023-03-27T05:47:57.779Z,87.63
2023-03-27T05:51:05.167Z,87.84
2023-03-27T05:54:13.016Z,88.06
2023-03-27T05:57:21.992Z,88.06
2023-03-27T06:00:29.198Z,88.22
2023-03-27T06:03:37.271Z,88.12
2023-03-27T06:06:46.181Z,88.18
2023-03-27T06:09:53.462Z,87.52
2023-03-27T06:13:00.485Z,86.85
2023-03-27T06:16:08.210Z,86.75
2023-03-27T06:19:16.940Z,86.91
2023-03-27T06:22:24.164Z,86.71
2023-03-27T06:25:31.780Z,86.19
2023-03-27T06:28:40.649Z,86.29
2023-03-27T06:31:47.606Z,86.50
2023-03-27T06:34:55.269Z,86.54
2023-03-27T06:38:04.046Z,86.65
2023-03-27T06:41:11.445Z,87.16
2023-03-27T06:44:19.289Z,87.27
2023-03-27T06:47:27.775Z,87.02
2023-03-27T06:50:35.681Z,86.91
2023-03-27T06:53:43.704Z,86.29
2023-03-27T06:56:52.541Z,86.88
2023-03-27T07:00:02.083Z,86.57
2023-03-27T07:03:09.834Z,86.77
2023-03-27T07:06:17.480Z,87.08
2023-03-27T07:09:26.456Z,87.08
2023-03-27T07:12:33.792Z,86.73
2023-03-27T07:15:41.413Z,86.21
2023-03-27T07:18:50.154Z,85.38
2023-03-27T07:21:57.488Z,85.24
2023-03-27T07:25:05.002Z,84.72
2023-03-27T07:28:13.370Z,84.41
2023-03-27T07:31:33.115Z,83.53
2023-03-27T07:34:25.944Z,83.12
2023-03-27T07:37:35.227Z,82.15
2023-03-27T07:40:44.007Z,81.59
2023-03-27T07:43:51.532Z,80.93
2023-03-27T07:46:58.467Z,79.85
2023-03-27T07:50:07.660Z,79.85
2023-03-27T07:53:33.828Z,79.85
2023-03-27T07:56:19.491Z,79.38
2023-03-27T07:59:28.235Z,79.48
2023-03-27T08:02:35.648Z,78.75
2023-03-27T08:05:43.565Z,79.24
2023-03-27T08:08:52.449Z,79.27
2023-03-27T08:11:59.993Z,79.69
2023-03-27T08:15:07.615Z,81.10
2023-03-27T08:18:15.970Z,81.30
2023-03-27T08:21:23.538Z,80.62
2023-03-27T08:24:31.062Z,80.41
2023-03-27T08:27:38.034Z,81.56
2023-03-27T08:30:47.266Z,81.04
2023-03-27T08:33:55.182Z,80.83
2023-03-27T08:37:02.111Z,80.89
2023-03-27T08:40:11.190Z,79.03
2023-03-27T08:43:18.717Z,79.51
2023-03-27T08:46:26.341Z,79.06
2023-03-27T08:49:35.254Z,78.78
2023-03-27T08:52:42.500Z,76.40
2023-03-27T08:55:49.898Z,77.84
2023-03-27T08:58:59.119Z,76.29
2023-03-27T09:02:06.390Z,76.67
2023-03-27T09:05:13.814Z,76.01
2023-03-27T09:08:22.476Z,76.70
2023-03-27T09:11:30.168Z,74.33
2023-03-27T09:14:37.404Z,75.46
2023-03-27T09:17:44.685Z,74.53
2023-03-27T09:20:53.690Z,75.22
2023-03-27T09:24:00.957Z,72.19
2023-03-27T09:27:08.224Z,70.75
2023-03-27T09:30:17.331Z,72.50
2023-03-27T09:33:17.917Z,70.78
2023-03-27T09:36:25.502Z,70.36
2023-03-27T09:39:33.100Z,72.22
2023-03-27T09:42:40.155Z,71.95
2023-03-27T09:45:49.141Z,72.40
2023-03-27T09:48:56.771Z,70.30
2023-03-27T09:52:03.730Z,68.88
2023-03-27T09:55:12.643Z,67.51
2023-03-27T09:58:19.965Z,67.03
2023-03-27T10:01:27.410Z,67.96
2023-03-27T10:04:36.393Z,69.82
2023-03-27T10:07:43.697Z,67.72
2023-03-27T10:10:51.046Z,65.80
2023-03-27T10:13:58.325Z,63.97
2023-03-27T10:17:07.612Z,66.48
2023-03-27T10:20:14.844Z,69.00
2023-03-27T10:23:21.809Z,67.49
2023-03-27T10:26:30.750Z,64.22
2023-03-27T10:29:40.620Z,63.67
2023-03-27T10:32:48.317Z,73.08
2023-03-27T10:35:57.277Z,78.99
2023-03-27T10:39:04.193Z,84.28
2023-03-27T10:42:11.563Z,90.06
2023-03-27T10:45:20.697Z,92.38
2023-03-27T10:48:28.174Z,93.90
2023-03-27T10:51:45.045Z,94.53
2023-03-27T10:54:40.077Z,94.94
2023-03-27T10:57:49.251Z,95.04
2023-03-27T11:00:56.836Z,94.01
2023-03-27T11:04:04.302Z,93.63
2023-03-27T11:07:14.879Z,92.49
2023-03-27T11:10:23.261Z,92.59
2023-03-27T11:13:31.145Z,94.21
2023-03-27T11:16:40.316Z,94.23
2023-03-27T11:19:47.321Z,92.98
2023-03-27T11:22:55.109Z,92.43
2023-03-27T11:26:04.147Z,91.30
2023-03-27T11:29:11.104Z,90.77
2023-03-27T11:32:18.769Z,86.94
2023-03-27T11:35:27.389Z,83.94
2023-03-27T11:38:34.672Z,83.53
2023-03-27T11:41:42.309Z,81.05
2023-03-27T11:44:49.617Z,80.46
2023-03-27T11:47:58.349Z,81.20
2023-03-27T11:51:06.196Z,89.50
2023-03-27T11:54:13.529Z,94.31
2023-03-27T11:57:22.418Z,96.79
2023-03-27T12:00:29.582Z,97.94
2023-03-27T12:03:37.492Z,98.77
2023-03-27T12:06:46.158Z,99.40
2023-03-27T12:09:53.544Z,99.99
2023-03-27T12:13:01.234Z,99.99
2023-03-27T12:16:10.181Z,99.99
2023-03-27T12:19:28.354Z,99.99
2023-03-27T12:22:24.408Z,99.99
2023-03-27T12:25:32.768Z,99.99
2023-03-27T12:28:32.492Z,99.99
2023-03-27T12:31:40.368Z,99.28
2023-03-27T12:34:47.464Z,98.88
2023-03-27T12:37:56.643Z,98.90
2023-03-27T12:41:04.306Z,95.74
2023-03-27T12:44:11.905Z,94.18
2023-03-27T12:47:20.683Z,92.90
2023-03-27T12:50:27.987Z,93.16
2023-03-27T12:53:35.121Z,91.16
2023-03-27T12:56:43.884Z,91.63
2023-03-27T12:59:51.447Z,85.70
2023-03-27T13:02:59.096Z,84.45
2023-03-27T13:06:05.967Z,84.15
2023-03-27T13:09:15.196Z,83.01
2023-03-27T13:12:22.234Z,84.11
2023-03-27T13:15:29.915Z,83.50
2023-03-27T13:18:39.034Z,87.95
2023-03-27T13:21:45.911Z,90.95
2023-03-27T13:24:53.556Z,98.20
2023-03-27T13:28:02.691Z,99.99
2023-03-27T13:31:09.784Z,99.99
2023-03-27T13:34:17.485Z,99.99
2023-03-27T13:37:36.934Z,99.99
2023-03-27T13:40:32.123Z,99.99
2023-03-27T13:43:39.420Z,99.99
2023-03-27T13:46:46.909Z,99.99
2023-03-27T13:49:56.566Z,99.99
2023-03-27T13:53:04.348Z,99.99
2023-03-27T13:56:11.739Z,99.99
2023-03-27T13:59:21.183Z,99.99
2023-03-27T14:02:29.393Z,99.99
2023-03-27T14:05:37.310Z,99.99
2023-03-27T14:08:46.505Z,99.99
2023-03-27T14:11:53.597Z,99.99
2023-03-27T14:15:01.271Z,99.99
2023-03-27T14:18:10.597Z,99.99
2023-03-27T14:21:27.636Z,99.99
2023-03-27T14:24:22.985Z,99.99
2023-03-27T14:27:32.028Z,99.99
2023-03-27T14:30:39.149Z,99.99
2023-03-27T14:33:46.919Z,99.99
2023-03-27T14:36:54.659Z,99.69
2023-03-27T14:40:03.245Z,98.19
2023-03-27T14:43:10.844Z,96.44
2023-03-27T14:46:18.188Z,92.90
2023-03-27T14:49:26.841Z,89.86
2023-03-27T14:52:34.562Z,91.95
2023-03-27T14:55:41.819Z,94.22
2023-03-27T14:58:50.625Z,95.93
2023-03-27T15:01:58.069Z,97.17
2023-03-27T15:05:05.860Z,98.01
2023-03-27T15:08:14.640Z,98.53
2023-03-27T15:11:22.418Z,99.11
2023-03-27T15:14:29.889Z,99.21
2023-03-27T15:17:37.169Z,99.37
2023-03-27T15:20:46.324Z,99.80
2023-03-27T15:23:53.853Z,99.28
2023-03-27T15:27:01.404Z,98.82
2023-03-27T15:30:10.276Z,98.52
2023-03-27T15:33:17.601Z,97.38
2023-03-27T15:36:25.086Z,96.30
2023-03-27T15:39:34.460Z,91.74
2023-03-27T15:42:41.387Z,89.44
2023-03-27T15:45:49.295Z,90.17
2023-03-27T15:48:58.348Z,90.83
2023-03-27T15:52:05.418Z,92.82
2023-03-27T15:55:12.996Z,91.16
2023-03-27T15:58:20.707Z,92.78
2023-03-27T16:01:29.310Z,92.20
2023-03-27T16:04:36.874Z,92.10
2023-03-27T16:07:44.784Z,92.24
2023-03-27T16:10:53.594Z,92.55
2023-03-27T16:14:01.272Z,92.76
2023-03-27T16:17:08.469Z,91.00
2023-03-27T16:20:17.643Z,90.62
2023-03-27T16:23:24.905Z,89.58
2023-03-27T16:26:32.218Z,90.89
2023-03-27T16:29:41.173Z,91.10
2023-03-27T16:32:48.655Z,90.44
2023-03-27T16:35:56.589Z,88.26
2023-03-27T16:39:04.100Z,87.88
2023-03-27T16:42:12.550Z,88.85
2023-03-27T16:45:19.893Z,88.65
2023-03-27T16:48:27.494Z,88.28
2023-03-27T16:51:35.955Z,88.90
2023-03-27T16:54:43.838Z,89.21
2023-03-27T16:57:51.275Z,89.11
2023-03-27T17:01:00.001Z,89.21
2023-03-27T17:04:07.565Z,89.73
2023-03-27T17:07:14.830Z,90.04
2023-03-27T17:10:23.727Z,90.04
2023-03-27T17:13:31.175Z,90.52
2023-03-27T17:16:38.829Z,91.24
2023-03-27T17:19:47.610Z,91.18
2023-03-27T17:22:55.068Z,92.01
2023-03-27T17:26:02.889Z,91.85
2023-03-27T17:29:09.813Z,92.05
2023-03-27T17:32:18.533Z,91.53
2023-03-27T17:35:27.330Z,91.53
2023-03-27T17:38:34.364Z,91.53
2023-03-27T17:41:43.100Z,91.43
2023-03-27T17:44:50.998Z,91.02
2023-03-27T17:47:58.358Z,91.02
2023-03-27T17:51:09.658Z,91.22
2023-03-27T17:54:17.859Z,91.12
2023-03-27T17:57:25.454Z,91.47
2023-03-27T18:00:34.127Z,90.29
2023-03-27T18:03:41.624Z,90.44
2023-03-27T18:06:49.019Z,90.75
2023-03-27T18:09:56.686Z,90.33
2023-03-27T18:13:05.498Z,89.92
2023-03-27T18:16:13.447Z,89.92
2023-03-27T18:19:20.828Z,88.04
2023-03-27T18:22:29.512Z,86.27
2023-03-27T18:25:36.913Z,86.90
2023-03-27T18:28:44.752Z,87.63
2023-03-27T18:31:53.951Z,87.98
2023-03-27T18:35:01.825Z,88.19
2023-03-27T18:38:09.038Z,88.60
2023-03-27T18:41:17.749Z,88.50
2023-03-27T18:44:26.989Z,88.60
2023-03-27T18:47:34.198Z,88.19
2023-03-27T18:50:41.570Z,87.88
2023-03-27T18:53:50.719Z,86.67
2023-03-27T18:56:57.806Z,86.21
2023-03-27T19:00:05.585Z,85.38
2023-03-27T19:03:14.508Z,84.86
2023-03-27T19:06:21.897Z,84.03
2023-03-27T19:09:40.706Z,83.72
2023-03-27T19:12:37.002Z,84.23
2023-03-27T19:15:44.221Z,84.80
2023-03-27T19:18:51.847Z,85.21
2023-03-27T19:22:00.786Z,85.73
2023-03-27T19:25:08.111Z,85.94
2023-03-27T19:28:15.129Z,85.83
2023-03-27T19:31:23.119Z,86.35
2023-03-27T19:34:41.975Z,86.71
2023-03-27T19:37:36.685Z,87.54
2023-03-27T19:40:44.599Z,87.96
2023-03-27T19:43:53.953Z,87.96
2023-03-27T19:47:01.097Z,88.48
2023-03-27T19:50:08.885Z,88.79
2023-03-27T19:53:17.762Z,88.68
2023-03-27T19:56:24.952Z,88.89
2023-03-27T19:59:32.890Z,88.48
2023-03-27T20:02:42.280Z,88.83
2023-03-27T20:05:49.325Z,88.62
2023-03-27T20:08:56.933Z,89.14
2023-03-27T20:12:05.468Z,89.35
2023-03-27T20:15:12.846Z,88.93
2023-03-27T20:18:20.735Z,89.04
2023-03-27T20:21:27.919Z,89.35
2023-03-27T20:24:37.272Z,89.76
2023-03-27T20:27:45.131Z,90.19
2023-03-27T20:30:52.321Z,89.73
2023-03-27T20:34:01.606Z,89.41
2023-03-27T20:37:08.928Z,89.41
2023-03-27T20:40:17.416Z,89.62
2023-03-27T20:43:26.280Z,89.76
2023-03-27T20:46:33.788Z,89.87
2023-03-27T20:49:41.849Z,89.98
2023-03-27T20:52:50.537Z,90.50
2023-03-27T20:56:00.139Z,90.54
2023-03-27T20:59:07.894Z,90.64
2023-03-27T21:02:15.448Z,90.64
2023-03-27T21:05:24.154Z,90.54
2023-03-27T21:08:31.948Z,90.64
2023-03-27T21:11:39.424Z,90.64
2023-03-27T21:14:48.264Z,90.64
2023-03-27T21:17:56.220Z,90.54
2023-03-27T21:21:03.211Z,90.85
2023-03-27T21:24:12.036Z,90.95
2023-03-27T21:27:19.840Z,90.95
2023-03-27T21:30:46.771Z,90.44
2023-03-27T21:33:33.205Z,90.19
2023-03-27T21:36:40.947Z,90.08
2023-03-27T21:39:47.954Z,90.08
2023-03-27T21:42:55.601Z,89.98
2023-03-27T21:46:05.039Z,89.87
2023-03-27T21:49:12.129Z,89.76
2023-03-27T21:52:20.163Z,89.45
2023-03-27T21:55:29.702Z,89.35
2023-03-27T21:58:36.991Z,89.45
2023-03-27T22:01:44.558Z,89.35
2023-03-27T22:04:53.189Z,89.66
2023-03-27T22:08:00.565Z,89.52
2023-03-27T22:11:08.025Z,89.10
2023-03-27T22:14:16.832Z,88.68
2023-03-27T22:17:24.702Z,88.23
2023-03-27T22:20:32.334Z,88.43
2023-03-27T22:23:40.959Z,88.12
2023-03-27T22:26:48.634Z,88.23
2023-03-27T22:29:55.816Z,88.33
2023-03-27T22:33:03.794Z,88.12
2023-03-27T22:36:12.853Z,88.02
2023-03-27T22:39:20.003Z,88.23
2023-03-27T22:42:27.764Z,87.77
2023-03-27T22:45:37.153Z,87.88
2023-03-27T22:48:44.173Z,87.98
2023-03-27T22:51:52.566Z,87.98
2023-03-27T22:55:01.610Z,88.50
2023-03-27T22:58:08.710Z,89.48
2023-03-27T23:01:16.506Z,91.91
2023-03-27T23:04:25.526Z,93.31
2023-03-27T23:07:32.923Z,94.24
2023-03-27T23:10:40.544Z,94.76
2023-03-27T23:13:48.325Z,94.87
2023-03-27T23:16:57.119Z,94.98
2023-03-27T23:20:04.930Z,94.92
2023-03-27T23:23:12.400Z,94.92
2023-03-27T23:26:21.238Z,94.49
2023-03-27T23:29:28.548Z,94.18
2023-03-27T23:32:36.166Z,93.93
2023-03-27T23:35:44.898Z,93.62
2023-03-27T23:38:52.207Z,93.62
2023-03-27T23:41:59.930Z,93.83
2023-03-27T23:45:08.769Z,94.87
2023-03-27T23:48:16.162Z,95.91
2023-03-27T23:51:23.942Z,96.43
2023-03-27T23:54:31.231Z,96.85
2023-03-27T23:57:39.683Z,97.10
